Time;durP1;ratioP1;P1;durP2;ratioP2;P2;SDS_P1;SDS_P2;PMS_P1;PMS_P2;Temp;Humidity;BMP_temperature;BMP_pressure;BME280_temperature;BME280_humidity;BME280_pressure;Samples;Min_cycle;Max_cycle;Signal;HPM_P1;HPM_P2
2022/02/28 00:01:12;;;;;;;15.03;10.70;;;5.90;99.90;;;6.01;63.48;102832.63;5076057;28;20087;-65
2022/02/28 00:03:41;;;;;;;14.68;10.73;;;5.90;99.90;;;5.91;63.59;102805.88;5094128;28;20048;-65
2022/02/28 00:06:09;;;;;;;15.10;11.43;;;5.90;99.90;;;6.10;63.33;102830.41;5093897;28;20123;-63
2022/02/28 00:08:41;;;;;;;13.07;9.87;;;5.90;99.90;;;5.93;63.61;102813.00;5093935;28;20048;-63
2022/02/28 00:11:09;;;;;;;16.20;12.13;;;5.90;99.90;;;5.86;63.43;102825.78;5094287;28;20040;-61
2022/02/28 00:13:38;;;;;;;18.93;10.57;;;5.80;99.90;;;6.02;63.18;102826.53;5094118;28;20065;-61
2022/02/28 00:16:11;;;;;;;17.23;11.23;;;5.90;99.90;;;5.90;63.26;102804.09;5093923;28;20051;-61
2022/02/28 00:18:40;;;;;;;14.77;10.18;;;5.90;99.90;;;6.01;63.25;102831.72;5093849;28;20512;-61
2022/02/28 00:21:09;;;;;;;16.13;10.70;;;5.90;99.90;;;5.75;63.13;102791.09;5076280;28;20044;-61
2022/02/28 00:23:37;;;;;;;14.67;11.10;;;5.90;99.90;;;6.01;63.25;102830.00;5075793;28;20060;-61
2022/02/28 00:26:05;;;;;;;19.53;11.63;;;5.90;99.90;;;6.04;63.10;102819.63;5075699;28;20121;-62
2022/02/28 00:28:35;;;;;;;15.53;10.43;;;5.90;99.90;;;6.06;63.36;102824.94;5075686;28;20059;-61
2022/02/28 00:31:03;;;;;;;14.40;11.37;;;6.00;99.90;;;6.09;63.24;102819.84;5075801;28;20070;-61
2022/02/28 00:33:33;;;;;;;19.43;11.20;;;6.00;99.90;;;6.12;63.06;102831.38;5075868;28;20060;-61
2022/02/28 00:36:02;;;;;;;16.33;11.25;;;6.00;99.90;;;6.18;62.82;102833.38;5093755;28;20048;-61
2022/02/28 00:38:30;;;;;;;14.70;11.00;;;6.00;99.90;;;6.18;62.33;102846.50;5093361;28;20494;-61
2022/02/28 00:41:01;;;;;;;16.65;11.50;;;6.10;99.90;;;6.18;62.64;102836.00;5093754;28;20036;-61
2022/02/28 00:43:30;;;;;;;16.63;10.97;;;6.20;99.90;;;6.23;62.38;102835.38;5093691;28;20042;-62
2022/02/28 00:45:59;;;;;;;19.10;11.10;;;6.10;99.90;;;6.01;62.33;102832.63;5093538;28;20351;-61
2022/02/28 00:48:27;;;;;;;13.40;10.67;;;6.10;99.90;;;6.15;62.48;102843.75;5093640;28;20051;-61
2022/02/28 00:50:57;;;;;;;16.90;10.93;;;6.10;99.90;;;6.10;62.35;102847.88;5075380;28;20558;-61
2022/02/28 00:53:26;;;;;;;20.13;11.13;;;6.10;99.90;;;6.06;62.37;102846.84;5075446;28;20055;-61
2022/02/28 00:55:54;;;;;;;16.53;10.60;;;6.10;99.90;;;6.05;62.04;102850.34;5075345;28;20044;-61
2022/02/28 00:58:23;;;;;;;17.60;11.47;;;6.00;99.90;;;6.14;62.20;102855.09;5075398;28;20048;-61
2022/02/28 01:00:51;;;;;;;15.23;10.87;;;6.10;99.90;;;6.03;61.91;102848.47;5075222;28;20055;-62
2022/02/28 01:03:23;;;;;;;16.60;10.60;;;6.10;99.90;;;6.17;61.84;102855.25;5075324;28;20102;-63
2022/02/28 01:05:52;;;;;;;15.65;10.07;;;6.10;99.90;;;5.93;62.03;102868.16;5093402;28;20048;-61
2022/02/28 01:08:22;;;;;;;16.57;10.97;;;6.00;99.90;;;5.79;62.58;102866.56;5092656;28;20043;-61
2022/02/28 01:10:51;;;;;;;15.07;11.00;;;5.80;99.90;;;5.53;63.15;102840.81;5075226;28;20040;-61
2022/02/28 01:13:20;;;;;;;17.13;11.73;;;5.70;99.90;;;5.63;63.52;102860.53;5075150;28;20040;-61
2022/02/28 01:15:49;;;;;;;20.83;12.07;;;5.60;99.90;;;5.39;64.38;102849.75;5075249;28;20052;-61
2022/02/28 01:18:17;;;;;;;17.30;12.00;;;5.50;99.90;;;5.02;64.83;102809.44;5093280;28;20516;-61
2022/02/28 01:20:50;;;;;;;17.37;12.17;;;5.30;99.90;;;5.03;64.96;102832.22;5075301;28;20052;-61
2022/02/28 01:23:20;;;;;;;22.02;12.68;;;5.20;99.90;;;5.12;65.48;102861.53;5075174;28;20052;-61
2022/02/28 01:25:51;;;;;;;14.97;11.70;;;5.10;99.90;;;5.08;65.51;102852.63;5093296;28;20074;-61
2022/02/28 01:28:19;;;;;;;18.80;12.23;;;5.10;99.90;;;5.11;65.66;102858.00;5092918;28;20048;-61
2022/02/28 01:30:48;;;;;;;17.37;11.67;;;5.10;99.90;;;5.06;65.85;102850.72;5093177;28;20043;-61
2022/02/28 01:33:18;;;;;;;15.47;12.10;;;5.00;99.90;;;4.82;65.94;102821.56;5093084;28;20048;-61
2022/02/28 01:35:47;;;;;;;20.35;12.32;;;5.00;99.90;;;4.97;66.21;102856.44;5075083;28;20044;-61
2022/02/28 01:38:16;;;;;;;16.37;11.63;;;4.90;99.90;;;4.76;66.92;102841.34;5093039;28;20151;-61
2022/02/28 01:40:46;;;;;;;18.40;11.90;;;4.80;99.90;;;4.77;66.66;102849.28;5092706;28;20081;-74
2022/02/28 01:43:14;;;;;;;17.10;11.45;;;4.80;99.90;;;4.87;66.65;102851.53;5093398;28;20094;-73
2022/02/28 01:45:43;;;;;;;19.50;13.30;;;4.80;99.90;;;4.87;66.77;102846.31;5093012;28;20048;-73
2022/02/28 01:48:11;;;;;;;18.27;12.37;;;4.90;99.90;;;4.70;66.63;102827.94;5074640;28;20127;-73
2022/02/28 01:50:39;;;;;;;17.70;12.77;;;4.80;99.90;;;4.76;67.36;102850.13;5074950;28;20056;-73
2022/02/28 01:53:08;;;;;;;15.97;13.07;;;4.70;99.90;;;4.75;67.01;102844.75;5074925;28;20094;-73
2022/02/28 01:55:36;;;;;;;20.60;13.83;;;4.70;99.90;;;4.61;67.64;102843.19;5075045;28;20091;-73
2022/02/28 01:58:07;;;;;;;18.00;13.50;;;4.70;99.90;;;4.65;67.73;102850.34;5074763;28;20071;-73
2022/02/28 02:00:36;;;;;;;18.33;12.80;;;4.60;99.90;;;4.65;67.79;102850.34;5092810;28;20444;-74
2022/02/28 02:03:05;;;;;;;17.83;12.15;;;4.60;99.90;;;4.61;68.10;102845.81;5074784;28;20078;-73
2022/02/28 02:05:35;;;;;;;16.87;12.90;;;4.60;99.90;;;4.72;67.71;102847.25;5074598;28;20405;-72
2022/02/28 02:08:07;;;;;;;18.80;13.02;;;4.60;99.90;;;4.66;67.80;102842.59;5074744;28;20042;-70
2022/02/28 02:10:39;;;;;;;19.90;12.07;;;4.60;99.90;;;4.50;67.79;102811.19;5074690;28;20048;-70
2022/02/28 02:13:10;;;;;;;18.13;12.10;;;4.70;99.90;;;4.80;67.63;102838.94;5074713;28;20052;-71
2022/02/28 02:15:41;;;;;;;19.87;12.90;;;4.70;99.90;;;4.47;67.26;102782.22;5074762;28;20051;-73
2022/02/28 02:18:09;;;;;;;;;;;4.80;99.90;;;4.79;66.76;102828.38;5075324;28;20142;-73
2022/02/28 02:20:40;;;;;;;19.50;12.23;;;4.80;99.90;;;4.82;66.81;102839.91;5094442;28;19920;-73
2022/02/28 02:23:12;;;;;;;18.00;12.67;;;4.80;99.90;;;4.88;66.71;102832.34;5078303;28;20052;-73
2022/02/28 02:25:42;;;;;;;17.03;12.10;;;4.90;99.90;;;4.97;66.52;102845.94;5078311;28;20048;-73
2022/02/28 02:28:16;;;;;;;17.33;12.77;;;4.90;99.90;;;4.26;65.95;102692.03;5078097;28;20105;-73
2022/02/28 02:30:49;;;;;;;16.63;11.20;;;5.00;99.90;;;5.11;66.07;102841.38;5078073;28;20494;-73
2022/02/28 02:33:18;;;;;;;16.90;12.47;;;5.10;99.90;;;5.29;65.71;102844.88;5077937;28;20048;-73
2022/02/28 02:35:54;;;;;;;19.00;12.87;;;5.20;99.90;;;5.34;65.00;102838.16;5077939;28;20146;-73
2022/02/28 02:38:24;;;;;;;15.67;11.73;;;5.30;99.90;;;5.40;64.61;102838.44;5077950;28;20139;-73
2022/02/28 02:40:52;;;;;;;16.63;11.93;;;5.30;99.90;;;5.32;64.42;102824.06;5077780;28;20085;-73
2022/02/28 02:43:21;;;;;;;16.27;12.10;;;5.30;99.90;;;5.36;64.24;102839.13;5077714;28;20054;-75
2022/02/28 02:45:51;;;;;;;17.27;12.23;;;5.30;99.90;;;5.15;64.24;102831.09;5094586;28;20048;-74
2022/02/28 02:48:22;;;;;;;19.83;12.53;;;5.10;99.90;;;4.99;64.66;102833.81;5077931;28;20055;-73
2022/02/28 02:51:00;;;;;;;17.70;11.90;;;4.90;99.90;;;4.86;65.41;102822.63;5094617;28;20052;-72
2022/02/28 02:53:30;;;;;;;15.57;11.77;;;4.80;99.90;;;4.82;65.42;102828.53;5077664;28;20044;-73
2022/02/28 02:56:00;;;;;;;17.80;11.97;;;4.70;99.90;;;4.80;65.94;102817.09;5077550;28;20109;-73
2022/02/28 02:58:29;;;;;;;21.08;12.38;;;4.70;99.90;;;4.76;66.04;102828.25;5077503;28;20078;-73
2022/02/28 03:00:58;;;;;;;20.57;12.33;;;4.70;99.90;;;4.69;66.02;102816.53;5077374;28;20060;-73
2022/02/28 03:03:31;;;;;;;19.10;12.60;;;4.70;99.90;;;4.63;65.73;102800.50;5077518;28;20119;-73
2022/02/28 03:06:02;;;;;;;15.93;11.83;;;4.70;99.90;;;4.69;65.94;102815.63;5095520;28;20032;-73
2022/02/28 03:08:34;;;;;;;20.63;12.00;;;4.70;99.90;;;4.62;66.27;102818.78;5095248;28;20036;-70
2022/02/28 03:11:02;;;;;;;16.40;12.40;;;4.60;99.90;;;4.53;66.55;102813.94;5077281;28;20044;-71
2022/02/28 03:13:31;;;;;;;22.40;12.83;;;4.50;99.90;;;4.51;67.07;102813.88;5095380;28;20048;-70
2022/02/28 03:15:59;;;;;;;23.63;12.87;;;4.50;99.90;;;4.47;66.74;102819.78;5095304;28;20074;-70
2022/02/28 03:18:30;;;;;;;16.93;11.80;;;4.40;99.90;;;4.52;66.94;102817.41;5095254;28;20513;-70
2022/02/28 03:20:59;;;;;;;20.83;13.23;;;4.50;99.90;;;4.61;66.80;102822.22;5076990;28;20052;-71
2022/02/28 03:23:29;;;;;;;20.07;12.60;;;4.50;99.90;;;4.60;67.17;102816.06;5094828;28;20072;-70
2022/02/28 03:26:05;;;;;;;17.67;12.30;;;4.60;99.90;;;4.46;66.85;102810.13;5076926;28;20071;-70
2022/02/28 03:28:36;;;;;;;18.60;12.30;;;4.40;99.90;;;4.35;67.16;102813.94;5076976;28;20047;-70
2022/02/28 03:31:05;;;;;;;17.37;12.83;;;4.30;99.90;;;4.36;67.10;102805.22;5076572;28;20051;-71
2022/02/28 03:33:35;;;;;;;20.30;12.67;;;4.30;99.90;;;4.45;67.17;102813.56;5076445;28;20044;-70
2022/02/28 03:36:04;;;;;;;19.73;12.27;;;4.40;99.90;;;4.49;66.97;102812.91;5076701;28;20040;-70
2022/02/28 03:38:38;;;;;;;23.37;13.87;;;4.40;99.90;;;4.29;66.95;102783.88;5076801;28;20062;-72
2022/02/28 03:41:06;;;;;;;18.50;12.30;;;4.40;99.90;;;4.37;67.13;102796.56;5094611;28;20086;-71
2022/02/28 03:43:37;;;;;;;21.47;13.67;;;4.40;99.90;;;4.32;67.35;102805.91;5076559;28;20052;-70
2022/02/28 03:46:11;;;;;;;21.17;13.27;;;4.30;99.90;;;4.23;67.84;102794.97;5076502;28;20051;-70
2022/02/28 03:49:02;;;;;;;16.03;11.50;;;4.20;99.90;;;4.24;67.68;102801.97;5074646;28;20071;-73
2022/02/28 03:51:40;;;;;;;18.83;11.70;;;4.20;99.90;;;4.26;67.82;102808.19;5076760;28;20048;-73
2022/02/28 03:54:17;;;;;;;16.57;12.50;;;4.20;99.90;;;4.25;68.09;102801.16;5093372;28;20044;-72
2022/02/28 03:56:46;;;;;;;17.67;11.75;;;4.20;99.90;;;4.25;67.66;102798.56;5076246;28;20048;-72
2022/02/28 03:59:15;;;;;;;17.20;12.53;;;4.20;99.90;;;4.13;67.98;102797.91;5076105;28;20040;-73
2022/02/28 04:01:43;;;;;;;15.73;12.03;;;4.10;99.90;;;4.19;68.18;102798.22;5094451;28;20085;-73
2022/02/28 04:04:23;;;;;;;19.52;11.98;;;4.10;99.90;;;4.06;68.43;102784.41;5076242;28;20048;-73
2022/02/28 04:06:52;;;;;;;16.43;11.93;;;4.10;99.90;;;3.99;68.20;102791.03;5076042;28;20055;-70
2022/02/28 04:09:23;;;;;;;21.50;13.13;;;4.00;99.90;;;3.90;68.33;102753.91;5075796;28;20457;-70
2022/02/28 04:11:52;;;;;;;17.42;12.27;;;4.00;99.90;;;4.03;68.15;102772.06;5076110;28;20044;-70
2022/02/28 04:14:20;;;;;;;19.20;11.87;;;4.00;99.90;;;3.63;68.12;102708.88;5076008;28;20044;-70
2022/02/28 04:16:49;;;;;;;18.93;11.67;;;4.00;99.90;;;4.09;68.25;102787.19;5076108;28;20044;-71
2022/02/28 04:19:36;;;;;;;19.47;13.13;;;4.10;99.90;;;4.04;68.13;102788.66;5094117;28;20047;-70
2022/02/28 04:22:05;;;;;;;18.50;12.23;;;4.00;99.90;;;4.04;68.21;102781.72;5075857;28;20577;-70
2022/02/28 04:24:38;;;;;;;18.67;13.60;;;4.00;99.90;;;4.02;68.33;102774.59;5075929;28;20486;-70
2022/02/28 04:27:07;;;;;;;16.13;12.05;;;4.00;99.90;;;3.94;68.64;102776.81;5093876;28;20431;-70
2022/02/28 04:29:36;;;;;;;16.03;12.13;;;3.90;99.90;;;3.98;68.50;102780.50;5076148;28;20446;-70
2022/02/28 04:32:09;;;;;;;18.30;12.00;;;3.90;99.90;;;4.01;68.70;102778.94;5075838;28;20059;-70
2022/02/28 04:34:46;;;;;;;20.40;13.50;;;3.90;99.90;;;4.05;68.67;102780.88;5075660;28;20426;-70
2022/02/28 04:37:14;;;;;;;21.43;12.73;;;4.00;99.90;;;4.06;68.27;102774.84;5075804;28;20044;-70
2022/02/28 04:39:44;;;;;;;19.40;12.17;;;4.00;99.90;;;3.95;68.64;102770.75;5093776;28;20111;-70
2022/02/28 04:42:12;;;;;;;19.33;13.32;;;4.00;99.90;;;3.96;68.31;102774.28;5074961;28;20044;-70
2022/02/28 04:44:42;;;;;;;17.00;12.35;;;3.90;99.90;;;3.92;68.30;102772.31;5075573;28;20412;-70
2022/02/28 04:47:11;;;;;;;16.93;12.27;;;3.90;99.90;;;3.91;68.77;102781.88;5075429;28;20123;-70
2022/02/28 04:50:01;;;;;;;16.08;11.35;;;3.90;99.90;;;3.88;69.06;102775.59;5075512;28;20093;-70
2022/02/28 04:52:30;;;;;;;18.73;12.47;;;3.90;99.90;;;3.90;68.71;102774.84;5075369;28;20054;-70
2022/02/28 04:54:59;;;;;;;17.53;12.33;;;3.90;99.90;;;3.96;68.40;102779.50;5075746;28;20073;-70
2022/02/28 04:57:29;;;;;;;17.33;11.77;;;3.90;99.90;;;3.90;68.78;102779.19;5075462;28;20044;-70
2022/02/28 04:59:58;;;;;;;19.73;12.90;;;3.90;99.90;;;3.92;68.84;102769.69;5071781;28;20448;-71
2022/02/28 05:02:27;;;;;;;18.20;12.97;;;3.90;99.90;;;4.02;68.85;102775.50;5071986;28;20425;-70
2022/02/28 05:05:18;;;;;;;18.10;12.70;;;4.00;99.90;;;4.03;68.45;102785.16;5073312;28;20044;-68
2022/02/28 05:07:47;;;;;;;17.87;12.63;;;4.00;99.90;;;3.99;68.42;102770.09;5071861;28;20040;-71
2022/02/28 05:10:16;;;;;;;19.17;11.80;;;4.00;99.90;;;3.99;67.97;102790.16;5073525;28;20140;-77
2022/02/28 05:12:52;;;;;;;17.53;12.33;;;4.00;99.90;;;3.78;68.51;102742.78;5072022;28;20056;-73
2022/02/28 05:15:21;;;;;;;20.10;12.53;;;4.00;99.90;;;3.92;68.52;102780.16;5073113;28;20409;-71
2022/02/28 05:17:50;;;;;;;16.90;13.15;;;3.90;99.90;;;3.89;68.37;102777.41;5072037;28;20448;-72
2022/02/28 05:20:19;;;;;;;13.93;11.73;;;3.90;99.90;;;3.92;68.49;102782.78;5072095;28;20061;-71
2022/02/28 05:22:49;;;;;;;22.67;12.87;;;3.90;99.90;;;3.87;68.60;102784.28;5071830;28;20045;-71
2022/02/28 05:25:18;;;;;;;18.73;13.10;;;3.90;99.90;;;3.84;68.45;102777.16;5073071;28;20052;-75
2022/02/28 05:27:48;;;;;;;19.50;11.98;;;3.90;99.90;;;3.86;68.73;102785.06;5071861;28;20045;-74
2022/02/28 05:30:17;;;;;;;16.70;13.00;;;3.90;99.90;;;3.79;68.52;102776.00;5072028;28;20052;-74
2022/02/28 05:32:48;;;;;;;19.43;13.17;;;3.80;99.90;;;3.81;68.51;102790.09;5071772;28;20468;-74
2022/02/28 05:35:35;;;;;;;19.90;12.30;;;3.80;99.90;;;3.56;68.80;102758.19;5071775;28;20052;-74
2022/02/28 05:38:11;;;;;;;18.20;12.27;;;3.80;99.90;;;3.71;68.82;102787.78;5071954;28;20055;-74
2022/02/28 05:40:44;;;;;;;16.97;12.20;;;3.80;99.90;;;3.69;68.80;102799.88;5071750;28;20470;-74
2022/02/28 05:43:13;;;;;;;;;;;3.70;99.90;;;3.72;68.73;102788.69;5072165;28;20079;-74
2022/02/28 05:45:43;;;;;;;23.55;11.63;;;3.70;99.90;;;3.77;68.70;102802.91;5071594;28;19920;-75
2022/02/28 05:48:30;;;;;;;16.97;12.27;;;3.80;99.90;;;3.78;68.85;102799.47;5072758;28;20047;-74
2022/02/28 05:50:59;;;;;;;16.63;11.93;;;3.80;99.90;;;3.67;68.50;102806.75;5071877;28;20052;-74
2022/02/28 05:53:27;;;;;;;17.70;12.93;;;3.70;99.90;;;3.55;68.83;102808.69;5073166;28;20063;-74
2022/02/28 05:55:57;;;;;;;17.67;12.37;;;3.60;99.90;;;3.54;68.98;102806.91;5076235;28;20607;-74
2022/02/28 05:58:26;;;;;;;17.58;11.80;;;3.60;99.90;;;3.55;69.29;102804.38;5076534;28;20055;-72
2022/02/28 06:00:54;;;;;;;17.80;11.83;;;3.60;99.90;;;3.46;69.18;102816.03;5090346;28;20056;-75
2022/02/28 06:03:22;;;;;;;19.07;13.07;;;3.50;99.90;;;3.41;69.47;102822.72;5096681;28;20044;-74
2022/02/28 06:05:51;;;;;;;21.63;13.17;;;3.40;99.90;;;3.44;69.91;102817.66;5096383;28;20068;-74
2022/02/28 06:08:19;;;;;;;16.50;12.77;;;3.40;99.90;;;3.22;69.67;102789.41;5096236;28;20131;-75
2022/02/28 06:10:47;;;;;;;18.33;12.63;;;3.40;99.90;;;3.35;69.78;102824.97;5096243;28;20048;-74
2022/02/28 06:13:18;;;;;;;19.47;13.27;;;3.40;99.90;;;3.26;70.10;102812.31;5096258;28;20520;-74
2022/02/28 06:15:46;;;;;;;18.08;13.20;;;3.30;99.90;;;3.39;69.44;102817.41;5096197;28;20081;-74
2022/02/28 06:18:14;;;;;;;20.27;13.67;;;3.40;99.90;;;3.33;69.98;102818.78;5096172;28;20052;-74
2022/02/28 06:20:43;;;;;;;21.47;13.43;;;3.30;99.90;;;3.24;69.83;102818.25;5096756;28;20126;-74
2022/02/28 06:23:14;;;;;;;24.47;13.17;;;3.30;99.90;;;3.00;69.51;102759.38;5096481;28;20070;-74
2022/02/28 06:25:43;;;;;;;19.00;13.80;;;3.30;99.90;;;3.41;69.85;102820.09;5096281;28;20079;-74
2022/02/28 06:28:13;;;;;;;19.20;14.40;;;3.30;99.90;;;2.93;69.26;102741.53;5096079;28;20066;-76
2022/02/28 06:30:43;;;;;;;17.70;13.40;;;3.40;99.90;;;3.45;69.21;102825.59;5095992;28;20050;-76
2022/02/28 06:33:12;;;;;;;19.80;12.93;;;3.40;99.90;;;2.70;69.31;102693.22;5078119;28;20048;-75
2022/02/28 06:35:44;;;;;;;17.83;12.37;;;3.50;99.90;;;3.47;69.42;102833.50;5096335;28;20051;-74
2022/02/28 06:38:12;;;;;;;22.47;12.97;;;3.50;99.90;;;3.43;69.12;102836.78;5096101;28;20370;-75
2022/02/28 06:40:41;;;;;;;18.73;12.60;;;3.40;99.90;;;3.26;69.86;102821.84;5095911;28;20032;-73
2022/02/28 06:43:09;;;;;;;21.37;13.70;;;3.30;99.90;;;3.47;69.73;102828.28;5095821;28;20048;-74
2022/02/28 06:45:37;;;;;;;15.37;12.27;;;3.40;99.90;;;3.38;69.50;102810.38;5095538;28;20075;-74
2022/02/28 06:48:07;;;;;;;18.00;12.60;;;3.40;99.90;;;3.28;69.56;102842.06;5077483;28;20048;-74
2022/02/28 06:50:36;;;;;;;19.08;12.13;;;3.30;99.90;;;3.60;69.37;102849.09;5095880;28;20048;-74
2022/02/28 06:53:04;;;;;;;17.47;12.60;;;3.50;99.90;;;3.56;69.40;102834.06;5095672;28;20064;-73
2022/02/28 06:55:40;;;;;;;22.40;13.27;;;3.50;99.90;;;3.58;68.89;102849.00;5077556;28;20048;-73
2022/02/28 06:58:09;;;;;;;17.03;12.70;;;3.50;99.90;;;3.77;68.46;102819.53;5095676;28;20109;-73
2022/02/28 07:00:38;;;;;;;20.77;13.30;;;3.70;99.90;;;3.86;68.15;102851.41;5095512;28;20445;-73
2022/02/28 07:03:17;;;;;;;18.67;13.70;;;3.70;99.90;;;3.89;68.37;102845.47;5077464;28;20048;-73
2022/02/28 07:05:49;;;;;;;16.98;13.25;;;3.80;99.90;;;3.92;68.14;102851.75;5094809;28;20040;-74
2022/02/28 07:08:18;;;;;;;21.33;13.53;;;3.90;99.90;;;3.34;67.82;102753.50;5095567;28;20036;-71
2022/02/28 07:10:48;;;;;;;18.53;11.87;;;3.90;99.90;;;4.08;67.84;102849.16;5095109;28;20048;-70
2022/02/28 07:13:16;;;;;;;21.70;11.97;;;4.00;99.90;;;4.09;67.46;102837.84;5094957;28;20075;-71
2022/02/28 07:15:47;;;;;;;15.80;12.33;;;4.10;99.90;;;4.35;67.08;102861.09;5094989;28;20067;-70
2022/02/28 07:18:17;;;;;;;21.23;12.37;;;4.30;99.90;;;4.37;66.60;102846.34;5095281;28;20076;-71
2022/02/28 07:20:46;;;;;;;15.18;11.80;;;4.40;99.90;;;4.68;66.69;102867.16;5095769;28;20477;-70
2022/02/28 07:23:14;;;;;;;18.70;13.63;;;4.60;99.90;;;4.92;65.95;102878.88;5095351;28;20489;-69
2022/02/28 07:25:43;;;;;;;15.90;11.57;;;4.80;99.90;;;5.18;65.37;102880.19;5095153;28;20044;-72
2022/02/28 07:28:11;;;;;;;18.03;12.83;;;5.10;99.90;;;5.35;63.99;102881.91;5094934;28;20039;-70
2022/02/28 07:30:39;;;;;;;17.23;11.97;;;5.20;99.90;;;5.56;63.51;102888.19;5094667;28;20127;-66
2022/02/28 07:33:08;;;;;;;18.27;12.63;;;5.40;99.90;;;5.42;63.24;102894.50;5076650;28;20389;-72
2022/02/28 07:35:38;;;;;;;19.53;13.20;;;5.40;99.90;;;5.55;63.37;102896.00;5094890;28;20055;-70
2022/02/28 07:38:06;;;;;;;18.00;12.07;;;5.40;99.90;;;5.79;63.14;102898.06;5094546;28;20123;-72
2022/02/28 07:40:35;;;;;;;16.67;12.60;;;5.60;99.90;;;6.04;62.13;102894.94;5095085;28;20056;-72
2022/02/28 07:43:04;;;;;;;18.48;13.75;;;5.80;99.90;;;6.00;61.93;102893.84;5094436;28;20508;-70
2022/02/28 07:45:32;;;;;;;16.48;11.35;;;5.80;99.90;;;6.44;60.60;102895.91;5094802;28;20068;-70
2022/02/28 07:48:02;;;;;;;21.92;11.63;;;6.20;99.90;;;6.32;60.55;102893.63;5094523;28;20451;-67
2022/02/28 07:50:30;;;;;;;20.00;11.73;;;6.20;99.90;;;5.93;60.78;102888.25;5094572;28;20048;-71
2022/02/28 07:53:00;;;;;;;14.65;11.88;;;5.90;99.90;;;5.91;61.44;102882.03;5094199;28;20134;-67
2022/02/28 07:55:28;;;;;;;21.20;12.43;;;5.80;99.90;;;6.12;60.58;102894.44;5094270;28;20548;-74
2022/02/28 07:57:57;;;;;;;20.05;12.02;;;5.90;99.90;;;6.00;60.44;102903.50;5094228;28;20047;-71
2022/02/28 08:00:28;;;;;;;16.90;11.25;;;5.90;99.90;;;6.18;60.08;102892.09;5094650;28;20083;-72
2022/02/28 08:02:57;;;;;;;15.48;11.15;;;6.10;99.90;;;6.24;60.01;102883.59;5094110;28;20056;-72
2022/02/28 08:05:26;;;;;;;15.85;11.05;;;6.10;99.90;;;6.59;59.93;102888.69;5094547;28;20059;-70
2022/02/28 08:07:55;;;;;;;17.58;11.38;;;6.40;99.90;;;6.51;58.29;102910.19;5094363;28;20489;-68
2022/02/28 08:10:25;;;;;;;21.13;12.10;;;6.40;99.90;;;6.46;58.82;102907.38;5094066;28;20048;-70
2022/02/28 08:12:53;;;;;;;15.32;12.02;;;6.40;99.90;;;6.68;59.25;102889.06;5093934;28;20127;-69
2022/02/28 08:15:21;;;;;;;18.85;11.80;;;6.50;99.90;;;7.18;57.87;102912.31;5093926;28;20097;-71
2022/02/28 08:17:50;;;;;;;15.63;11.20;;;6.90;99.90;;;7.05;57.08;102881.94;5093475;28;20052;-70
2022/02/28 08:20:18;;;;;;;18.23;11.27;;;7.00;99.90;;;7.14;57.38;102910.38;5094006;28;20075;-69
2022/02/28 08:22:46;;;;;;;15.95;11.57;;;6.90;99.90;;;7.13;56.95;102909.47;5093760;28;20119;-71
2022/02/28 08:25:17;;;;;;;16.73;11.93;;;7.00;99.90;;;7.04;57.03;102913.44;5094318;28;20047;-71
2022/02/28 08:27:46;;;;;;;14.45;11.52;;;6.90;99.90;;;7.18;56.63;102909.69;5093659;28;20044;-68
2022/02/28 08:30:15;;;;;;;17.00;11.77;;;7.00;99.90;;;7.21;56.47;102910.69;5093777;28;20043;-69
2022/02/28 08:32:43;;;;;;;15.32;11.52;;;7.10;99.90;;;7.22;56.29;102901.03;5093827;28;20294;-70
2022/02/28 08:35:17;;;;;;;16.75;11.13;;;7.10;99.90;;;7.39;56.62;102907.03;5093769;28;20044;-69
2022/02/28 08:37:46;;;;;;;23.90;11.65;;;7.10;99.90;;;7.50;55.62;102896.09;5093743;28;20470;-66
2022/02/28 08:40:15;;;;;;;17.17;11.38;;;7.40;99.90;;;7.66;56.08;102894.97;5093476;28;20044;-69
2022/02/28 08:42:43;;;;;;;13.90;11.70;;;7.50;99.90;;;7.31;56.37;102906.72;5093456;28;20235;-67
2022/02/28 08:45:13;;;;;;;17.33;11.63;;;7.20;99.90;;;7.06;56.97;102894.28;5093357;28;20156;-68
2022/02/28 08:47:41;;;;;;;17.15;12.25;;;7.00;99.90;;;7.39;56.38;102886.88;5093355;28;20096;-68
2022/02/28 08:50:11;;;;;;;15.43;11.98;;;7.20;99.90;;;7.68;56.21;102883.69;5093169;28;20047;-68
2022/02/28 08:52:39;;;;;;;14.82;12.00;;;7.60;99.90;;;7.76;56.02;102889.25;5075422;28;20081;-68
2022/02/28 08:55:08;;;;;;;15.98;12.55;;;7.60;99.90;;;8.00;55.20;102880.53;5093849;28;20055;-68
2022/02/28 08:57:37;;;;;;;18.25;12.20;;;7.80;99.90;;;8.21;53.02;102883.97;5093160;28;20071;-68
2022/02/28 09:00:08;;;;;;;15.82;12.15;;;8.10;99.90;;;8.10;53.34;102874.78;5093588;28;20142;-68
2022/02/28 09:02:40;;;;;;;13.48;11.05;;;8.00;99.90;;;8.36;53.92;102885.44;5093243;28;20097;-67
2022/02/28 09:05:10;;;;;;;15.52;11.30;;;8.20;99.90;;;7.55;53.04;102797.09;5093515;28;20093;-67
2022/02/28 09:07:39;;;;;;;18.20;12.80;;;8.10;99.90;;;7.88;53.62;102865.97;5093044;28;20519;-68
2022/02/28 09:10:08;;;;;;;16.00;11.52;;;7.80;99.90;;;7.85;54.76;102858.88;5092904;28;20051;-68
2022/02/28 09:12:37;;;;;;;14.68;11.80;;;7.70;99.90;;;8.38;54.29;102846.84;5093520;28;20036;-68
2022/02/28 09:15:06;;;;;;;15.77;12.55;;;8.10;99.90;;;7.87;53.52;102859.84;5093069;28;20485;-68
2022/02/28 09:17:35;;;;;;;18.58;11.35;;;7.90;99.90;;;8.03;54.41;102842.88;5093289;28;20054;-68
2022/02/28 09:20:07;;;;;;;14.45;10.93;;;7.90;99.90;;;8.19;53.60;102843.50;5093135;28;20044;-68
2022/02/28 09:22:36;;;;;;;21.33;11.50;;;8.00;99.90;;;7.99;53.11;102862.03;5093228;28;20452;-68
2022/02/28 09:25:06;;;;;;;14.70;12.00;;;7.90;99.90;;;8.00;53.96;102854.19;5093264;28;20129;-67
2022/02/28 09:27:35;;;;;;;17.58;12.18;;;7.90;99.90;;;8.11;52.35;102866.03;5093405;28;20051;-68
2022/02/28 09:30:17;;;;;;;14.85;11.63;;;8.10;99.90;;;8.52;53.11;102866.66;5096453;28;20044;-67
2022/02/28 09:32:51;;;;;;;15.40;12.07;;;8.30;99.90;;;8.28;52.50;102861.44;5079437;28;20048;-67
2022/02/28 09:35:21;;;;;;;16.77;11.63;;;8.20;99.90;;;8.62;51.56;102860.88;5096919;28;20117;-68
2022/02/28 09:37:49;;;;;;;14.60;10.98;;;8.40;99.90;;;8.57;51.78;102842.28;5096885;28;20039;-69
2022/02/28 09:40:18;;;;;;;17.33;12.95;;;8.40;99.90;;;8.82;51.18;102842.28;5097088;28;20075;-67
2022/02/28 09:43:16;;;;;;;14.35;11.07;;;8.70;99.90;;;9.04;51.38;102844.78;5096691;28;20044;-70
2022/02/28 09:46:05;;;;;;;19.70;12.38;;;8.90;99.90;;;6.51;51.16;102552.69;5097046;28;20047;-70
2022/02/28 09:49:13;;;;;;;17.73;12.75;;;8.60;99.90;;;8.71;53.38;102835.72;5096875;28;20052;-70
2022/02/28 09:51:45;;;;;;;14.60;11.30;;;8.50;99.90;;;8.74;52.96;102842.84;5096871;28;20052;-70
2022/02/28 09:54:32;;;;;;;14.77;12.32;;;8.60;99.90;;;9.47;53.00;102841.81;5096911;28;20065;-70
2022/02/28 09:57:22;;;;;;;16.30;11.48;;;9.10;99.90;;;9.04;51.96;102835.97;5096915;28;20458;-70
2022/02/28 10:00:10;;;;;;;15.98;11.82;;;9.00;99.90;;;9.71;50.94;102839.94;5078618;28;20394;-71
2022/02/28 10:02:48;;;;;;;18.58;11.82;;;9.40;99.90;;;9.37;51.01;102858.19;5078631;28;20051;-71
2022/02/28 10:05:19;;;;;;;15.25;11.75;;;9.30;99.90;;;10.00;49.71;102860.22;5078418;28;20524;-69
2022/02/28 10:07:52;;;;;;;13.35;10.95;;;9.70;99.90;;;10.47;48.28;102866.00;5096371;28;20040;-70
2022/02/28 10:10:21;;;;;;;17.48;12.18;;;10.30;99.90;;;10.50;48.05;102874.94;5096145;28;20075;-70
2022/02/28 10:12:51;;;;;;;16.48;11.38;;;10.40;99.90;;;10.29;47.60;102852.25;5078329;28;20504;-67
2022/02/28 10:15:22;;;;;;;19.08;12.32;;;10.40;99.90;;;9.94;48.56;102875.91;5078271;28;20101;-68
2022/02/28 10:17:55;;;;;;;19.58;12.18;;;9.90;99.90;;;9.96;49.72;102857.44;5096500;28;20039;-68
2022/02/28 10:20:27;;;;;;;14.77;11.27;;;9.90;99.90;;;10.25;48.97;102882.13;5096410;28;20473;-69
2022/02/28 10:23:01;;;;;;;13.57;11.18;;;10.10;99.90;;;10.28;49.44;102884.88;5096003;28;20044;-68
2022/02/28 10:25:35;;;;;;;16.15;12.75;;;10.10;99.90;;;10.27;48.13;102867.19;5078088;28;20113;-68
2022/02/28 10:28:16;;;;;;;14.70;11.98;;;10.20;99.90;;;10.55;48.49;102883.00;5078072;28;20076;-68